Time;durP1;ratioP1;P1;durP2;ratioP2;P2;SDS_P1;SDS_P2;PMS_P1;PMS_P2;Temp;Humidity;BMP_temperature;BMP_pressure;BME280_temperature;BME280_humidity;BME280_pressure;Samples;Min_cycle;Max_cycle;Signal;HPM_P1;HPM_P2
2023/03/27 00:00:59;;;;;;;2.70;2.50;;;6.70;99.90;;;;;;6001808;23;20221;-76
2023/03/27 00:03:30;;;;;;;2.08;1.98;;;6.70;99.90;;;;;;5990876;23;20294;-77
2023/03/27 00:06:01;;;;;;;2.22;2.13;;;6.60;99.90;;;;;;6009092;23;20590;-76
2023/03/27 00:08:30;;;;;;;2.40;2.20;;;6.60;99.90;;;;;;6003402;23;20190;-76
2023/03/27 00:10:57;;;;;;;3.72;3.53;;;6.60;99.90;;;;;;6000099;23;20190;-77
2023/03/27 00:13:24;;;;;;;3.10;2.90;;;6.60;99.90;;;;;;5996675;23;20222;-77
2023/03/27 00:15:54;;;;;;;4.82;4.45;;;6.60;99.90;;;;;;5983890;23;20256;-77
2023/03/27 00:18:21;;;;;;;3.70;3.40;;;6.80;99.90;;;;;;5999717;23;20721;-76
2023/03/27 00:20:48;;;;;;;3.42;3.22;;;6.60;99.90;;;;;;6004798;23;20259;-76
2023/03/27 00:23:16;;;;;;;3.60;3.40;;;6.60;99.90;;;;;;5998630;23;20724;-77
2023/03/27 00:25:43;;;;;;;4.10;3.70;;;6.70;99.90;;;;;;5993649;23;20600;-76
2023/03/27 00:28:11;;;;;;;3.78;3.47;;;6.60;99.90;;;;;;5999108;23;20956;-77
2023/03/27 00:30:39;;;;;;;3.25;3.03;;;6.60;99.90;;;;;;5994537;23;20214;-76
2023/03/27 00:33:09;;;;;;;2.38;2.25;;;6.60;99.90;;;;;;5987406;23;20725;-76
2023/03/27 00:35:36;;;;;;;2.40;2.20;;;6.60;99.90;;;;;;5995289;23;20199;-76
2023/03/27 00:38:03;;;;;;;1.95;1.80;;;6.60;99.90;;;;;;5980011;23;20282;-77
2023/03/27 00:40:32;;;;;;;2.03;1.92;;;6.70;99.90;;;;;;5998190;23;20218;-76
2023/03/27 00:42:59;;;;;;;1.90;1.70;;;6.50;99.90;;;;;;5993001;23;20214;-77
2023/03/27 00:45:30;;;;;;;1.25;1.15;;;6.50;99.90;;;;;;6000440;23;20273;-76
2023/03/27 00:48:01;;;;;;;1.20;1.10;;;6.50;99.90;;;;;;5981913;23;20194;-76
2023/03/27 00:50:33;;;;;;;0.90;0.90;;;6.40;99.90;;;;;;5990450;23;20248;-76
2023/03/27 00:53:05;;;;;;;0.93;0.90;;;6.40;99.90;;;;;;5983055;23;20234;-76
2023/03/27 00:55:36;;;;;;;1.20;1.00;;;6.30;99.90;;;;;;5988673;23;20265;-77
2023/03/27 00:58:08;;;;;;;1.10;1.00;;;6.30;99.90;;;;;;5989542;23;20622;-76
2023/03/27 01:00:36;;;;;;;0.77;0.77;;;6.30;99.90;;;;;;6000874;23;20227;-76
2023/03/27 01:03:07;;;;;;;0.90;0.90;;;6.30;99.90;;;;;;5993950;23;20298;-76
2023/03/27 01:05:37;;;;;;;1.00;0.85;;;6.30;99.90;;;;;;6001700;23;20187;-76
2023/03/27 01:08:05;;;;;;;1.30;1.20;;;6.20;99.90;;;;;;5986454;23;20194;-76
2023/03/27 01:10:44;;;;;;;1.20;1.05;;;6.20;99.90;;;;;;5999627;23;20199;-76
2023/03/27 01:13:24;;;;;;;1.50;1.30;;;6.20;99.90;;;;;;5994585;23;20223;-76
2023/03/27 01:16:00;;;;;;;1.40;1.10;;;6.20;99.90;;;;;;5995245;23;20721;-76
2023/03/27 01:18:37;;;;;;;1.42;1.33;;;6.00;99.90;;;;;;5993051;23;20277;-77
2023/03/27 01:21:54;;;;;;;1.52;1.42;;;6.10;99.90;;;;;;6016499;23;20292;-76
2023/03/27 01:24:54;;;;;;;1.67;1.55;;;6.10;99.90;;;;;;5999939;23;20202;-76
2023/03/27 01:27:29;;;;;;;1.30;1.20;;;6.00;99.90;;;;;;5965210;23;20202;-76
2023/03/27 01:30:17;;;;;;;2.38;1.50;;;5.90;99.90;;;;;;5993938;23;20200;-76
2023/03/27 01:33:09;;;;;;;1.10;1.00;;;5.90;99.90;;;;;;5989763;23;20220;-76
2023/03/27 01:36:04;;;;;;;1.30;1.20;;;5.90;99.90;;;;;;5994727;23;20269;-76
2023/03/27 01:39:09;;;;;;;1.20;1.10;;;5.90;99.90;;;;;;5994310;23;20273;-76
2023/03/27 01:41:43;;;;;;;1.63;1.40;;;5.80;99.90;;;;;;5993523;23;20320;-76
2023/03/27 01:44:15;;;;;;;1.70;1.60;;;5.80;99.90;;;;;;6000076;23;20794;-77
2023/03/27 01:46:49;;;;;;;1.65;1.55;;;5.70;99.90;;;;;;5987954;23;20428;-76
2023/03/27 01:49:22;;;;;;;2.45;1.52;;;5.80;99.90;;;;;;5990367;23;20319;-77
2023/03/27 01:51:53;;;;;;;1.80;1.60;;;5.80;99.90;;;;;;5991856;23;20235;-77
2023/03/27 01:54:26;;;;;;;1.58;1.48;;;6.10;99.90;;;;;;6007099;23;20862;-76
2023/03/27 01:57:01;;;;;;;1.60;1.50;;;5.70;99.90;;;;;;5984827;23;20199;-76
2023/03/27 01:59:32;;;;;;;1.75;1.65;;;5.90;99.90;;;;;;5999381;23;21046;-76
2023/03/27 02:02:03;;;;;;;2.05;1.60;;;5.60;99.90;;;;;;5994601;23;20229;-76
2023/03/27 02:04:35;;;;;;;1.60;1.50;;;5.60;99.90;;;;;;5996759;23;20249;-76
2023/03/27 02:07:07;;;;;;;1.95;1.80;;;6.00;99.90;;;;;;5985672;23;20674;-77
2023/03/27 02:09:40;;;;;;;1.90;1.80;;;5.60;99.90;;;;;;5995117;23;20648;-77
2023/03/27 02:12:11;;;;;;;1.65;1.55;;;5.60;99.90;;;;;;6004462;23;20237;-76
2023/03/27 02:14:42;;;;;;;1.90;1.80;;;5.60;99.90;;;;;;5989742;23;20654;-76
2023/03/27 02:17:14;;;;;;;2.22;2.03;;;5.60;99.90;;;;;;5996924;23;20240;-76
2023/03/27 02:19:47;;;;;;;1.98;1.88;;;5.60;99.90;;;;;;5989420;23;20582;-76
2023/03/27 02:22:15;;;;;;;2.03;1.92;;;5.60;99.90;;;;;;5983214;23;20313;-76
2023/03/27 02:24:45;;;;;;;2.25;2.10;;;5.60;99.90;;;;;;5989360;23;20232;-76
2023/03/27 02:27:19;;;;;;;3.40;3.20;;;5.60;99.90;;;;;;5995316;23;20194;-76
2023/03/27 02:29:56;;;;;;;6.97;4.55;;;5.60;99.90;;;;;;5998806;23;20189;-76
2023/03/27 02:32:43;;;;;;;8.75;6.43;;;5.60;99.90;;;;;;5992433;23;20220;-76
2023/03/27 02:35:33;;;;;;;9.63;5.60;;;5.50;99.90;;;;;;5995362;23;20205;-77
2023/03/27 02:38:12;;;;;;;6.72;5.65;;;5.40;99.90;;;;;;6000849;23;20194;-76
2023/03/27 02:40:50;;;;;;;9.27;5.35;;;5.40;99.90;;;;;;5999255;23;20232;-77
2023/03/27 02:43:21;;;;;;;7.03;5.40;;;5.30;99.90;;;;;;5983902;23;20190;-76
2023/03/27 02:45:55;;;;;;;7.18;5.40;;;5.20;99.90;;;;;;5986278;23;20602;-77
2023/03/27 02:48:30;;;;;;;8.20;6.03;;;5.20;99.90;;;;;;5999584;23;20608;-76
2023/03/27 02:51:02;;;;;;;8.30;5.90;;;5.10;99.90;;;;;;5988560;23;20194;-76
2023/03/27 02:53:35;;;;;;;9.40;6.00;;;5.10;99.90;;;;;;5990882;23;20305;-76
2023/03/27 02:56:06;;;;;;;8.27;5.80;;;5.10;99.90;;;;;;5997694;23;20195;-77
2023/03/27 02:58:38;;;;;;;7.00;4.90;;;5.00;99.90;;;;;;6001817;23;20198;-76
2023/03/27 03:01:09;;;;;;;8.27;5.40;;;5.00;99.90;;;;;;5999438;23;20316;-76
2023/03/27 03:03:40;;;;;;;11.20;6.22;;;4.90;99.90;;;;;;5997762;23;20198;-76
2023/03/27 03:06:09;;;;;;;10.82;6.63;;;4.90;99.90;;;;;;6002470;23;20234;-76
2023/03/27 03:08:38;;;;;;;8.05;5.30;;;4.80;99.90;;;;;;6001604;23;20244;-76
2023/03/27 03:11:09;;;;;;;13.90;7.63;;;4.70;99.90;;;;;;5988073;23;20206;-76
2023/03/27 03:13:36;;;;;;;12.40;6.72;;;4.70;99.90;;;;;;5992530;23;20203;-76
2023/03/27 03:16:04;;;;;;;6.75;5.30;;;4.70;99.90;;;;;;5993166;23;20270;-76
2023/03/27 03:18:31;;;;;;;9.25;5.60;;;4.60;99.90;;;;;;5996483;23;20539;-76
2023/03/27 03:20:59;;;;;;;8.57;5.10;;;4.60;99.90;;;;;;6003916;23;20214;-76
2023/03/27 03:23:26;;;;;;;9.88;6.05;;;4.60;99.90;;;;;;6000089;23;20657;-76
2023/03/27 03:25:55;;;;;;;11.60;6.10;;;4.60;99.90;;;;;;5991215;23;20199;-76
2023/03/27 03:28:24;;;;;;;9.85;5.30;;;4.80;99.90;;;;;;5991790;23;20205;-76
2023/03/27 03:30:52;;;;;;;8.65;5.80;;;5.00;99.90;;;;;;5985787;23;20201;-76
2023/03/27 03:33:20;;;;;;;7.97;5.55;;;4.80;99.90;;;;;;6003970;23;20190;-76
2023/03/27 03:35:49;;;;;;;15.52;6.93;;;4.60;99.90;;;;;;5982080;23;20197;-76
2023/03/27 03:38:23;;;;;;;6.63;4.78;;;4.60;99.90;;;;;;5987093;23;20190;-76
2023/03/27 03:40:53;;;;;;;9.20;5.78;;;4.60;99.90;;;;;;5990487;23;20240;-76
2023/03/27 03:43:20;;;;;;;12.18;6.95;;;4.50;99.90;;;;;;5994194;23;20717;-76
2023/03/27 03:45:49;;;;;;;7.40;4.78;;;4.50;99.90;;;;;;5991147;23;20202;-76
2023/03/27 03:48:18;;;;;;;9.13;5.75;;;4.50;99.90;;;;;;5988480;23;20195;-76
2023/03/27 03:50:47;;;;;;;8.10;5.03;;;4.40;99.90;;;;;;5995592;23;20252;-76
2023/03/27 03:53:14;;;;;;;7.82;5.40;;;4.40;99.90;;;;;;5991447;23;20662;-75
2023/03/27 03:55:43;;;;;;;8.52;4.50;;;4.40;99.90;;;;;;5994702;23;20280;-76
2023/03/27 03:58:10;;;;;;;10.43;5.70;;;4.40;99.90;;;;;;5989459;23;20202;-75
2023/03/27 04:00:39;;;;;;;10.32;4.38;;;4.40;99.90;;;;;;5993415;23;20197;-75
2023/03/27 04:03:09;;;;;;;7.55;4.90;;;4.30;99.90;;;;;;5980178;23;20194;-75
2023/03/27 04:05:37;;;;;;;8.75;4.72;;;4.20;99.90;;;;;;5989827;23;20672;-75
2023/03/27 04:08:06;;;;;;;12.07;4.50;;;4.20;99.90;;;;;;5988144;23;20591;-75
2023/03/27 04:10:36;;;;;;;12.65;5.15;;;4.20;99.90;;;;;;5987538;23;20227;-75
2023/03/27 04:13:03;;;;;;;8.60;4.25;;;4.10;99.90;;;;;;5999106;23;20198;-75
2023/03/27 04:15:30;;;;;;;10.65;5.20;;;4.20;99.90;;;;;;6002138;23;20190;-75
2023/03/27 04:17:58;;;;;;;8.50;4.22;;;4.10;99.90;;;;;;5995405;23;20233;-79
2023/03/27 04:20:27;;;;;;;8.85;4.70;;;4.10;99.90;;;;;;5999423;23;20229;-79
2023/03/27 04:22:54;;;;;;;12.40;4.90;;;4.00;99.90;;;;;;5979873;23;20707;-76
2023/03/27 04:25:24;;;;;;;10.88;4.25;;;4.00;99.90;;;;;;5990983;23;20216;-76
2023/03/27 04:27:51;;;;;;;6.97;3.67;;;4.00;99.90;;;;;;5993239;23;20261;-74
2023/03/27 04:30:21;;;;;;;9.70;4.10;;;3.90;99.90;;;;;;5998610;23;20194;-76
2023/03/27 04:32:49;;;;;;;7.75;3.50;;;3.90;99.90;;;;;;5987845;23;20218;-77
2023/03/27 04:35:17;;;;;;;6.88;3.95;;;3.80;99.90;;;;;;5994551;23;20193;-77
2023/03/27 04:37:46;;;;;;;7.80;3.63;;;3.80;99.90;;;;;;5997599;23;20190;-76
2023/03/27 04:40:16;;;;;;;11.27;4.18;;;3.70;99.90;;;;;;5991052;23;20636;-77
2023/03/27 04:42:44;;;;;;;5.53;3.47;;;3.70;99.90;;;;;;5996003;23;20265;-77
2023/03/27 04:45:13;;;;;;;14.98;3.50;;;3.60;99.90;;;;;;5995267;23;20630;-78
2023/03/27 04:47:41;;;;;;;8.68;2.70;;;3.60;99.90;;;;;;5997117;23;20265;-78
2023/03/27 04:50:10;;;;;;;6.38;2.95;;;3.50;99.90;;;;;;5991253;23;20196;-76
2023/03/27 04:52:37;;;;;;;9.75;3.13;;;3.50;99.90;;;;;;5997752;23;20287;-75
2023/03/27 04:55:07;;;;;;;8.88;3.05;;;3.50;99.90;;;;;;5990970;23;20234;-76
2023/03/27 04:57:34;;;;;;;7.90;2.80;;;3.40;99.90;;;;;;5998675;23;20289;-76
2023/03/27 05:00:05;;;;;;;10.98;3.20;;;3.40;99.90;;;;;;5997603;23;20680;-76
2023/03/27 05:02:33;;;;;;;7.95;3.72;;;3.40;99.90;;;;;;6009959;23;20249;-77
2023/03/27 05:05:00;;;;;;;8.63;3.78;;;3.40;99.90;;;;;;5984780;23;20256;-77
2023/03/27 05:07:29;;;;;;;9.10;2.92;;;3.40;99.90;;;;;;6001840;23;20193;-77
2023/03/27 05:09:57;;;;;;;6.53;3.10;;;3.30;99.90;;;;;;5995216;23;20193;-77
2023/03/27 05:12:26;;;;;;;7.43;3.00;;;3.20;99.90;;;;;;6002127;23;20578;-77
2023/03/27 05:14:53;;;;;;;7.78;3.10;;;3.20;99.90;;;;;;5994802;23;20192;-78
2023/03/27 05:17:24;;;;;;;9.73;3.22;;;3.20;99.90;;;;;;5989655;23;20305;-77
2023/03/27 05:19:51;;;;;;;8.88;2.80;;;3.10;99.90;;;;;;5990125;23;20186;-77
2023/03/27 05:22:18;;;;;;;10.48;3.35;;;3.10;99.90;;;;;;5997128;23;20232;-77
2023/03/27 05:24:45;;;;;;;6.00;3.10;;;3.10;99.90;;;;;;5995129;23;20563;-77
2023/03/27 05:27:14;;;;;;;8.45;2.90;;;3.10;99.90;;;;;;5995545;23;20769;-76
2023/03/27 05:29:42;;;;;;;10.23;3.35;;;3.00;99.90;;;;;;6002989;23;20645;-77
2023/03/27 05:32:09;;;;;;;7.97;2.97;;;3.00;99.90;;;;;;5993248;23;20305;-77
2023/03/27 05:34:37;;;;;;;7.05;3.28;;;3.00;99.90;;;;;;5983902;23;20256;-77
2023/03/27 05:37:05;;;;;;;7.82;2.80;;;3.00;99.90;;;;;;5993987;23;20287;-77
2023/03/27 05:39:32;;;;;;;8.60;2.80;;;2.90;99.90;;;;;;5978576;23;20640;-77
2023/03/27 05:41:59;;;;;;;8.18;2.53;;;2.90;99.90;;;;;;5984166;23;20219;-77
2023/03/27 05:44:26;;;;;;;8.75;2.60;;;2.90;99.90;;;;;;5982940;23;20270;-77
2023/03/27 05:46:55;;;;;;;5.25;2.70;;;2.90;99.90;;;;;;5976967;23;20190;-77
2023/03/27 05:49:22;;;;;;;8.82;3.10;;;2.90;99.90;;;;;;5988447;23;20212;-77
2023/03/27 05:51:49;;;;;;;8.48;3.78;;;2.90;99.90;;;;;;5985650;23;20281;-77
2023/03/27 05:54:17;;;;;;;10.98;2.78;;;3.00;99.90;;;;;;5990582;23;20182;-76
2023/03/27 05:56:44;;;;;;;8.27;2.53;;;3.00;99.90;;;;;;5993511;23;20608;-77
2023/03/27 05:59:11;;;;;;;8.75;2.42;;;3.00;99.90;;;;;;5989544;23;20220;-77
2023/03/27 06:01:39;;;;;;;11.50;3.00;;;2.90;99.90;;;;;;5983959;23;20250;-77
2023/03/27 06:04:07;;;;;;;5.93;2.33;;;2.90;99.90;;;;;;5977426;23;20695;-77
2023/03/27 06:06:34;;;;;;;5.05;2.40;;;2.90;99.90;;;;;;5993909;23;20184;-77
2023/03/27 06:09:02;;;;;;;11.20;2.95;;;2.90;99.90;;;;;;5984336;23;20192;-77
2023/03/27 06:11:29;;;;;;;9.45;2.53;;;2.90;99.90;;;;;;5985405;23;20218;-77
2023/03/27 06:13:56;;;;;;;6.20;2.38;;;2.90;99.90;;;;;;5984819;23;20185;-77
2023/03/27 06:16:24;;;;;;;8.05;2.35;;;2.90;99.90;;;;;;5981595;23;20206;-77
2023/03/27 06:18:51;;;;;;;6.10;2.63;;;2.90;99.90;;;;;;5980272;23;20187;-78
2023/03/27 06:21:20;;;;;;;7.65;3.53;;;2.90;99.90;;;;;;5983237;23;20926;-76
2023/03/27 06:23:48;;;;;;;7.13;2.97;;;3.00;99.90;;;;;;5988425;23;20267;-76
2023/03/27 06:26:15;;;;;;;11.38;3.17;;;3.00;99.90;;;;;;5998539;23;20195;-75
2023/03/27 06:28:43;;;;;;;6.40;2.90;;;3.00;99.90;;;;;;5989427;23;20198;-75
2023/03/27 06:31:10;;;;;;;4.18;2.33;;;3.00;99.90;;;;;;5996805;23;20213;-75
2023/03/27 06:33:39;;;;;;;7.93;2.33;;;3.00;99.90;;;;;;5985983;23;20223;-76
2023/03/27 06:36:07;;;;;;;7.22;2.58;;;3.00;99.90;;;;;;5986808;23;20189;-77
2023/03/27 06:38:36;;;;;;;5.90;2.50;;;3.00;99.90;;;;;;5984575;23;20642;-76
2023/03/27 06:41:04;;;;;;;8.00;2.80;;;3.10;99.90;;;;;;5983889;23;20280;-76
2023/03/27 06:43:31;;;;;;;8.13;3.10;;;3.10;99.90;;;;;;5988761;23;20218;-76
2023/03/27 06:45:58;;;;;;;4.65;2.58;;;3.10;99.90;;;;;;5987954;23;20194;-76
2023/03/27 06:48:26;;;;;;;9.95;2.80;;;3.20;99.90;;;;;;5989928;23;20194;-76
2023/03/27 06:50:53;;;;;;;5.75;2.45;;;3.20;99.90;;;;;;5984156;23;20751;-76
2023/03/27 06:53:20;;;;;;;6.80;2.20;;;3.20;99.90;;;;;;5981033;23;20189;-76
2023/03/27 06:55:49;;;;;;;10.50;2.55;;;3.30;99.90;;;;;;5987863;23;20279;-76
2023/03/27 06:58:17;;;;;;;6.38;2.45;;;3.30;99.90;;;;;;5984059;23;20622;-76
2023/03/27 07:00:45;;;;;;;6.15;2.97;;;3.40;99.90;;;;;;5985091;23;20252;-76
2023/03/27 07:03:13;;;;;;;5.78;2.60;;;3.40;99.90;;;;;;5984814;23;20214;-76
2023/03/27 07:05:41;;;;;;;4.57;2.22;;;3.50;99.90;;;;;;5989739;23;20261;-76
2023/03/27 07:08:13;;;;;;;7.68;1.90;;;3.50;99.90;;;;;;5994842;23;20261;-77
2023/03/27 07:10:40;;;;;;;5.38;2.10;;;3.60;99.90;;;;;;5998734;23;20566;-76
2023/03/27 07:13:09;;;;;;;5.53;2.13;;;3.60;99.90;;;;;;5994146;23;20226;-76
2023/03/27 07:15:36;;;;;;;10.60;2.33;;;3.70;99.90;;;;;;5981134;23;20194;-76
2023/03/27 07:18:05;;;;;;;4.15;2.15;;;3.80;99.90;;;;;;5986837;23;20229;-76
2023/03/27 07:20:33;;;;;;;4.15;1.92;;;3.80;99.90;;;;;;5984054;23;20213;-76
2023/03/27 07:23:02;;;;;;;8.30;2.13;;;3.90;99.90;;;;;;5981200;23;20801;-76
2023/03/27 07:25:35;;;;;;;5.00;2.28;;;3.90;99.90;;;;;;5984120;23;20238;-76
2023/03/27 07:28:04;;;;;;;4.07;1.90;;;3.90;99.90;;;;;;5980263;23;20190;-76
2023/03/27 07:30:32;;;;;;;8.70;2.25;;;3.90;99.90;;;;;;5993460;23;20300;-76
2023/03/27 07:33:00;;;;;;;9.73;3.35;;;4.00;99.90;;;;;;5993564;23;20198;-76
2023/03/27 07:35:27;;;;;;;4.57;2.17;;;4.00;99.90;;;;;;5980012;23;20206;-76
2023/03/27 07:37:55;;;;;;;7.20;2.22;;;4.10;99.90;;;;;;5992345;23;20209;-77
2023/03/27 07:40:22;;;;;;;5.47;2.80;;;4.10;99.90;;;;;;5988095;23;20718;-77
2023/03/27 07:42:50;;;;;;;3.53;2.00;;;4.10;99.90;;;;;;5994943;23;20210;-77
2023/03/27 07:45:18;;;;;;;8.95;2.05;;;4.10;99.90;;;;;;5996458;23;20217;-77
2023/03/27 07:47:47;;;;;;;10.30;2.33;;;4.20;99.90;;;;;;5985077;23;20611;-77
2023/03/27 07:50:19;;;;;;;5.93;2.10;;;4.20;99.90;;;;;;5995542;23;20850;-77
2023/03/27 07:52:46;;;;;;;7.53;2.00;;;4.30;99.90;;;;;;5978237;23;20214;-76
2023/03/27 07:55:16;;;;;;;9.85;2.60;;;4.30;99.90;;;;;;5981917;23;20191;-76
2023/03/27 07:57:45;;;;;;;11.40;2.83;;;4.40;99.90;;;;;;5983642;23;20274;-77
2023/03/27 08:00:14;;;;;;;4.82;1.92;;;4.40;99.90;;;;;;5986355;23;20209;-76
2023/03/27 08:02:41;;;;;;;4.93;2.05;;;4.40;99.90;;;;;;5993938;23;20579;-77
2023/03/27 08:05:11;;;;;;;7.90;2.40;;;4.50;99.90;;;;;;5981247;23;20219;-77
2023/03/27 08:07:39;;;;;;;4.22;2.20;;;4.70;99.90;;;;;;5989316;23;20714;-77
2023/03/27 08:10:08;;;;;;;7.90;2.03;;;4.80;99.90;;;;;;5983988;23;20186;-77
2023/03/27 08:12:36;;;;;;;6.55;2.15;;;5.10;99.90;;;;;;5997854;23;20651;-76
2023/03/27 08:15:04;;;;;;;5.72;1.70;;;5.30;99.90;;;;;;5999663;23;20189;-77
2023/03/27 08:17:32;;;;;;;5.85;2.10;;;5.60;99.90;;;;;;5998727;23;20282;-77
2023/03/27 08:20:07;;;;;;;4.80;1.77;;;5.80;99.90;;;;;;5978654;23;20521;-77
2023/03/27 08:22:37;;;;;;;5.32;1.58;;;6.10;99.90;;;;;;5983863;23;20211;-77
2023/03/27 08:25:06;;;;;;;5.18;1.60;;;6.40;99.90;;;;;;6002422;23;20266;-77
2023/03/27 08:27:33;;;;;;;5.28;1.60;;;6.80;99.90;;;;;;5992409;23;20190;-77
2023/03/27 08:30:00;;;;;;;2.63;1.63;;;7.40;99.90;;;;;;5986149;23;20182;-77
2023/03/27 08:32:28;;;;;;;4.35;1.80;;;7.80;99.90;;;;;;5988900;23;20528;-77
2023/03/27 08:34:55;;;;;;;3.92;1.65;;;8.30;99.90;;;;;;5994594;23;20218;-78
2023/03/27 08:37:23;;;;;;;4.13;1.50;;;8.90;99.90;;;;;;5984415;23;20270;-77
2023/03/27 08:39:57;;;;;;;4.13;2.00;;;9.10;99.90;;;;;;5987834;23;20879;-77
2023/03/27 08:42:34;;;;;;;2.88;1.40;;;9.00;99.90;;;;;;5992232;23;20562;-77
2023/03/27 08:45:09;;;;;;;3.70;1.52;;;8.70;99.90;;;;;;5985929;23;20261;-77
2023/03/27 08:47:40;;;;;;;4.30;1.55;;;8.40;99.90;;;;;;5988161;23;20197;-77
2023/03/27 08:50:21;;;;;;;5.10;1.55;;;8.00;99.90;;;;;;6000287;23;20235;-77
2023/03/27 08:52:49;;;;;;;3.40;1.83;;;8.10;99.90;;;;;;5987981;23;20234;-77
2023/03/27 08:55:24;;;;;;;4.15;1.63;;;8.60;99.90;;;;;;6005530;23;20236;-78
2023/03/27 08:57:53;;;;;;;3.80;1.90;;;8.80;99.90;;;;;;5997014;23;20655;-77
2023/03/27 09:00:23;;;;;;;5.05;1.42;;;9.20;99.90;;;;;;6005114;23;20293;-77
2023/03/27 09:02:55;;;;;;;3.28;1.70;;;9.40;99.90;;;;;;5985774;23;20678;-77
2023/03/27 09:05:30;;;;;;;2.80;1.50;;;9.20;99.90;;;;;;5985887;23;20198;-77
2023/03/27 09:08:09;;;;;;;3.55;1.55;;;9.10;99.90;;;;;;5992590;23;20216;-77
2023/03/27 09:10:44;;;;;;;3.40;1.35;;;9.20;99.90;;;;;;5987264;23;20221;-77
2023/03/27 09:13:15;;;;;;;5.13;1.83;;;9.50;99.90;;;;;;5999634;23;20185;-77
2023/03/27 09:15:49;;;;;;;3.42;1.95;;;9.90;99.90;;;;;;5987906;23;20182;-78
2023/03/27 09:18:21;;;;;;;2.88;1.40;;;10.30;99.90;;;;;;5988679;23;20245;-78
2023/03/27 09:20:52;;;;;;;5.13;1.80;;;10.70;99.90;;;;;;5979707;23;20232;-78
2023/03/27 09:23:24;;;;;;;5.13;1.33;;;11.00;98.20;;;;;;5991127;23;20452;-78
2023/03/27 09:25:56;;;;;;;3.27;1.70;;;11.30;98.00;;;;;;5985307;23;20796;-78
2023/03/27 09:28:29;;;;;;;5.00;1.40;;;11.70;98.40;;;;;;5990215;23;20467;-78
2023/03/27 09:30:58;;;;;;;3.40;1.63;;;12.30;97.10;;;;;;5984947;23;20491;-80
2023/03/27 09:33:26;;;;;;;2.97;1.50;;;12.60;95.20;;;;;;5994488;23;20458;-81
2023/03/27 09:36:00;;;;;;;3.70;2.17;;;12.60;94.40;;;;;;5991798;23;20440;-77
2023/03/27 09:38:32;;;;;;;3.83;1.70;;;12.40;94.50;;;;;;5999490;23;20442;-77
2023/03/27 09:41:02;;;;;;;4.23;2.07;;;12.10;94.00;;;;;;5995327;23;20877;-75
2023/03/27 09:43:38;;;;;;;3.80;1.73;;;11.70;94.00;;;;;;5997443;23;20477;-77
2023/03/27 09:46:07;;;;;;;6.70;2.10;;;11.40;93.80;;;;;;5991285;23;20433;-77
2023/03/27 09:48:38;;;;;;;5.95;1.70;;;11.30;94.30;;;;;;5987813;23;20194;-77
2023/03/27 09:51:05;;;;;;;3.03;1.57;;;11.30;94.60;;;;;;5989709;23;20213;-77
2023/03/27 09:53:34;;;;;;;2.83;1.63;;;11.40;93.70;;;;;;5989457;23;20521;-78
2023/03/27 09:56:06;;;;;;;4.27;1.80;;;11.50;93.70;;;;;;5986087;23;20544;-78
2023/03/27 09:58:38;;;;;;;4.93;1.60;;;11.70;94.10;;;;;;5992670;23;20434;-77
2023/03/27 10:01:13;;;;;;;4.40;1.80;;;12.10;93.60;;;;;;5996640;23;20462;-77
2023/03/27 10:03:42;;;;;;;4.43;1.70;;;12.10;93.30;;;;;;5984314;23;20466;-76
2023/03/27 10:06:14;;;;;;;2.83;1.60;;;11.70;91.90;;;;;;5989098;23;20198;-77
2023/03/27 10:08:45;;;;;;;2.38;1.30;;;10.90;90.80;;;;;;5994299;23;20186;-76
2023/03/27 10:11:18;;;;;;;4.45;1.80;;;10.20;91.80;;;;;;5997760;23;20209;-77
2023/03/27 10:13:47;;;;;;;5.03;1.85;;;10.20;92.20;;;;;;5988500;23;20643;-78
2023/03/27 10:16:16;;;;;;;2.92;1.23;;;10.70;93.10;;;;;;5985736;23;20271;-78
2023/03/27 10:18:46;;;;;;;3.50;1.90;;;11.10;92.70;;;;;;5995638;23;20190;-76
2023/03/27 10:21:24;;;;;;;3.90;2.00;;;11.30;92.00;;;;;;6004399;23;20296;-77
2023/03/27 10:23:51;;;;;;;4.10;1.70;;;11.40;92.10;;;;;;5987211;23;20372;-77
2023/03/27 10:26:25;;;;;;;3.27;1.73;;;11.80;92.40;;;;;;5989060;23;20462;-78
2023/03/27 10:28:53;;;;;;;4.50;2.10;;;12.40;91.10;;;;;;5987521;23;20434;-77
2023/03/27 10:31:31;;;;;;;3.70;1.93;;;12.60;88.60;;;;;;5998823;23;20512;-76
2023/03/27 10:34:01;;;;;;;3.27;1.57;;;12.60;87.90;;;;;;5995939;23;20439;-77
2023/03/27 10:36:33;;;;;;;3.27;1.63;;;12.50;83.40;;;;;;5998704;23;20471;-77
2023/03/27 10:39:05;;;;;;;4.33;1.83;;;12.80;86.40;;;;;;5993871;23;20871;-78
2023/03/27 10:41:36;;;;;;;4.60;1.70;;;13.20;84.00;;;;;;5989441;23;20524;-78
2023/03/27 10:44:07;;;;;;;3.90;1.87;;;13.60;82.00;;;;;;5991428;23;20477;-77
2023/03/27 10:46:39;;;;;;;3.60;1.40;;;14.00;83.30;;;;;;5997893;23;20445;-78
2023/03/27 10:49:18;;;;;;;3.37;1.60;;;14.30;83.50;;;;;;5983326;23;20443;-77
2023/03/27 10:51:50;;;;;;;5.93;1.90;;;14.10;82.40;;;;;;5989735;23;20452;-78
2023/03/27 10:54:31;;;;;;;3.70;2.20;;;13.50;83.00;;;;;;5990504;23;20430;-78
2023/03/27 10:57:03;;;;;;;4.17;1.60;;;13.10;85.20;;;;;;5997923;23;20445;-75
2023/03/27 10:59:36;;;;;;;2.50;1.30;;;12.40;81.70;;;;;;5986610;23;20451;-76
2023/03/27 11:02:13;;;;;;;5.97;1.40;;;12.20;78.50;;;;;;5990875;23;20806;-76
2023/03/27 11:04:47;;;;;;;4.50;1.87;;;12.50;80.80;;;;;;5993274;23;20813;-76
2023/03/27 11:07:21;;;;;;;2.90;1.83;;;13.00;80.70;;;;;;5987658;23;20850;-77
2023/03/27 11:09:59;;;;;;;3.50;1.50;;;13.60;79.70;;;;;;5989450;23;20882;-77
2023/03/27 11:12:30;;;;;;;3.53;1.40;;;13.80;76.90;;;;;;5989023;23;20459;-77
2023/03/27 11:15:03;;;;;;;2.80;1.50;;;13.30;75.80;;;;;;5989733;23;20446;-76
2023/03/27 11:17:38;;;;;;;3.97;1.50;;;12.60;76.50;;;;;;5986718;23;20449;-76
2023/03/27 11:20:15;;;;;;;3.97;1.55;;;11.90;77.70;;;;;;5996408;23;20786;-74
2023/03/27 11:22:45;;;;;;;4.30;1.60;;;11.30;79.90;;;;;;5992020;23;20190;-77
2023/03/27 11:25:19;;;;;;;3.78;2.78;;;10.90;79.80;;;;;;5976521;23;20321;-76
2023/03/27 11:27:58;;;;;;;2.88;2.10;;;10.50;89.60;;;;;;5977442;23;20185;-67
2023/03/27 11:30:34;;;;;;;4.65;1.80;;;11.00;86.60;;;;;;5996929;23;20216;-68
2023/03/27 11:33:33;;;;;;;3.17;1.47;;;11.70;83.30;;;;;;5994217;23;20174;-76
2023/03/27 11:36:11;;;;;;;2.50;1.40;;;12.30;79.20;;;;;;5998865;23;20505;-75
2023/03/27 11:38:44;;;;;;;2.70;1.60;;;12.30;77.60;;;;;;5998313;23;20442;-76
2023/03/27 11:41:12;;;;;;;3.70;1.43;;;12.40;77.50;;;;;;5988397;23;20550;-75
2023/03/27 11:43:41;;;;;;;3.20;1.50;;;12.80;78.50;;;;;;5985632;23;20594;-76
2023/03/27 11:46:26;;;;;;;4.20;1.50;;;13.10;76.20;;;;;;5986936;23;20778;-77
2023/03/27 11:49:09;;;;;;;3.50;1.20;;;13.50;76.70;;;;;;5989055;23;20499;-76
2023/03/27 11:51:49;;;;;;;3.97;1.57;;;13.90;75.40;;;;;;5998561;23;20466;-76
2023/03/27 11:54:32;;;;;;;3.03;1.20;;;13.80;73.40;;;;;;5987395;23;21036;-77
2023/03/27 11:57:02;;;;;;;3.83;1.07;;;13.60;72.00;;;;;;5986516;23;20475;-77
2023/03/27 11:59:49;;;;;;;2.77;1.20;;;14.00;72.50;;;;;;5985262;23;20533;-77
2023/03/27 12:02:33;;;;;;;1.93;1.30;;;14.20;71.20;;;;;;5993335;23;20839;-77
2023/03/27 12:05:06;;;;;;;2.40;1.30;;;14.40;69.80;;;;;;5997928;23;20474;-77
2023/03/27 12:07:48;;;;;;;4.90;1.80;;;14.40;69.60;;;;;;5989623;23;20444;-77
2023/03/27 12:10:27;;;;;;;1.40;1.10;;;14.00;70.10;;;;;;5997004;23;20463;-77
2023/03/27 12:13:18;;;;;;;2.10;1.17;;;13.30;70.80;;;;;;5999344;23;20433;-77
2023/03/27 12:16:13;;;;;;;4.87;1.50;;;12.80;73.20;;;;;;5965013;23;20961;-77
2023/03/27 12:18:54;;;;;;;4.22;1.73;;;12.40;73.20;;;;;;5990021;23;20508;-76
2023/03/27 12:21:28;;;;;;;2.80;1.48;;;12.00;74.10;;;;;;6001033;23;20237;-77
2023/03/27 12:24:16;;;;;;;2.65;1.35;;;11.80;75.80;;;;;;5985533;23;20215;-76
2023/03/27 12:26:58;;;;;;;3.00;1.30;;;12.00;74.80;;;;;;5992793;23;20604;-77
2023/03/27 12:29:42;;;;;;;2.23;1.27;;;12.50;74.40;;;;;;5978642;23;20800;-77
2023/03/27 12:32:25;;;;;;;2.63;1.27;;;13.00;74.30;;;;;;5987683;23;20445;-77
2023/03/27 12:34:55;;;;;;;3.40;1.27;;;13.50;73.30;;;;;;5994962;23;20515;-77
2023/03/27 12:37:26;;;;;;;2.97;1.20;;;13.90;71.50;;;;;;5994653;23;20544;-77
2023/03/27 12:39:57;;;;;;;3.07;1.27;;;14.20;71.50;;;;;;5995390;23;20482;-76
2023/03/27 12:42:50;;;;;;;2.50;1.00;;;14.30;70.50;;;;;;5992039;23;20453;-75
2023/03/27 12:45:21;;;;;;;2.20;1.47;;;14.10;69.30;;;;;;5968886;23;20479;-71
2023/03/27 12:48:16;;;;;;;2.40;1.20;;;13.80;68.40;;;;;;5996736;23;20523;-75
2023/03/27 12:50:53;;;;;;;5.83;1.80;;;13.30;70.50;;;;;;5988150;23;20509;-75
2023/03/27 12:53:46;;;;;;;2.03;1.40;;;12.60;75.30;;;;;;5993171;23;20479;-74
2023/03/27 12:56:35;;;;;;;1.88;1.25;;;12.00;75.20;;;;;;5982464;23;20445;-74
2023/03/27 12:59:14;;;;;;;4.20;1.10;;;11.60;76.10;;;;;;5976771;23;20261;-74
2023/03/27 13:02:06;;;;;;;2.33;1.20;;;10.90;78.10;;;;;;6000406;23;20269;-74
2023/03/27 13:04:59;;;;;;;4.30;1.50;;;10.30;77.70;;;;;;5984031;23;20210;-74
2023/03/27 13:07:32;;;;;;;4.30;1.40;;;9.90;81.00;;;;;;5990428;23;20190;-73
2023/03/27 13:10:14;;;;;;;2.08;1.58;;;9.80;82.30;;;;;;5989509;23;20750;-74
2023/03/27 13:13:12;;;;;;;3.20;1.55;;;9.80;83.70;;;;;;5998708;23;20326;-74
2023/03/27 13:15:57;;;;;;;2.15;1.25;;;9.50;86.20;;;;;;5994593;23;20190;-74
2023/03/27 13:18:42;;;;;;;2.85;1.27;;;9.20;88.80;;;;;;5995633;23;20214;-74